Time;durP1;ratioP1;P1;durP2;ratioP2;P2;SDS_P1;SDS_P2;PMS_P1;PMS_P2;Temp;Humidity;BMP_temperature;BMP_pressure;BME280_temperature;BME280_humidity;BME280_pressure;Samples;Min_cycle;Max_cycle;Signal;HPM_P1;HPM_P2
2022/10/10 00:02:23;;;;;;;19.95;8.80;;;;;;;;;;8306066;28;20049;-88
2022/10/10 00:06:27;;;;;;;27.77;9.32;;;;;;;;;;8310702;28;20049;-89
2022/10/10 00:10:29;;;;;;;27.20;10.90;;;;;;;;;;8316541;28;20041;-88
2022/10/10 00:14:33;;;;;;;14.05;7.15;;;;;;;;;;8313227;28;20065;-87
2022/10/10 00:18:36;;;;;;;20.15;9.07;;;;;;;;;;8301086;28;20068;-87
2022/10/10 00:22:38;;;;;;;25.88;9.80;;;;;;;;;;8300690;28;20046;-88
2022/10/10 00:26:41;;;;;;;27.92;12.38;;;;;;;;;;8300672;28;20689;-88
2022/10/10 00:30:44;;;;;;;;;;;;;;;;;;8309232;28;20479;-88
2022/10/10 00:34:47;;;;;;;46.35;20.65;;;;;;;;;;8303896;28;20292;-88
2022/10/10 00:38:49;;;;;;;57.45;23.52;;;;;;;;;;8309437;28;20053;-87
2022/10/10 00:42:52;;;;;;;34.88;13.98;;;;;;;;;;8302834;28;20042;-87
2022/10/10 00:46:55;;;;;;;23.55;10.18;;;;;;;;;;8300103;28;20049;-88
2022/10/10 00:51:01;;;;;;;28.35;12.02;;;;;;;;;;8300018;28;20052;-88
2022/10/10 00:55:04;;;;;;;33.85;14.65;;;;;;;;;;8313734;28;20049;-88
2022/10/10 00:59:11;;;;;;;31.02;16.45;;;;;;;;;;8299725;28;20045;-90
2022/10/10 01:03:14;;;;;;;30.67;12.63;;;;;;;;;;8299680;28;20092;-89
2022/10/10 01:07:21;;;;;;;19.17;9.25;;;;;;;;;;8299492;28;20050;-87
2022/10/10 01:11:36;;;;;;;31.15;10.70;;;;;;;;;;8299491;28;20483;-88
2022/10/10 01:15:49;;;;;;;24.25;11.27;;;;;;;;;;8300732;28;20115;-88
2022/10/10 01:20:23;;;;;;;25.73;11.15;;;;;;;;;;8309894;28;20378;-89
2022/10/10 01:24:43;;;;;;;21.80;8.95;;;;;;;;;;8299003;28;20096;-87
2022/10/10 01:28:55;;;;;;;17.73;7.85;;;;;;;;;;8315251;28;20474;-87
2022/10/10 01:33:06;;;;;;;22.65;9.00;;;;;;;;;;8304919;28;20044;-87
2022/10/10 01:37:16;;;;;;;16.03;7.70;;;;;;;;;;8306441;28;20401;-86
2022/10/10 01:41:23;;;;;;;11.52;6.05;;;;;;;;;;8313213;28;20042;-90
2022/10/10 01:45:30;;;;;;;17.60;7.72;;;;;;;;;;8309785;28;20049;-87
2022/10/10 01:49:33;;;;;;;17.17;6.72;;;;;;;;;;8304514;28;20132;-87
2022/10/10 01:53:43;;;;;;;18.27;8.23;;;;;;;;;;8298169;28;20050;-89
2022/10/10 01:57:59;;;;;;;20.00;7.28;;;;;;;;;;8298049;28;20042;-87
2022/10/10 02:02:08;;;;;;;15.32;7.22;;;;;;;;;;8299715;28;20050;-86
2022/10/10 02:06:17;;;;;;;17.38;7.30;;;;;;;;;;8308994;28;20177;-87
2022/10/10 02:10:24;;;;;;;25.73;7.72;;;;;;;;;;8297976;28;20565;-88
2022/10/10 02:14:32;;;;;;;21.73;8.43;;;;;;;;;;8297534;28;20425;-88
2022/10/10 02:18:36;;;;;;;17.92;6.82;;;;;;;;;;8297666;28;20080;-88
2022/10/10 02:22:41;;;;;;;18.33;8.07;;;;;;;;;;8297422;28;20049;-87
2022/10/10 02:26:47;;;;;;;31.52;12.55;;;;;;;;;;8297490;28;20046;-88
2022/10/10 02:30:52;;;;;;;26.20;12.95;;;;;;;;;;8297381;28;20104;-85
2022/10/10 02:34:59;;;;;;;44.58;20.92;;;;;;;;;;8286403;28;20452;-85
2022/10/10 02:39:03;;;;;;;18.15;8.82;;;;;;;;;;8286431;28;20107;-88
2022/10/10 02:43:07;;;;;;;18.77;7.32;;;;;;;;;;8304406;28;20481;-88
2022/10/10 02:47:10;;;;;;;36.88;18.98;;;;;;;;;;8296888;28;20045;-89
2022/10/10 02:51:15;;;;;;;27.58;14.30;;;;;;;;;;8296835;28;20477;-89
2022/10/10 02:55:18;;;;;;;23.80;13.25;;;;;;;;;;8297741;28;20034;-87
2022/10/10 02:59:20;;;;;;;29.80;13.05;;;;;;;;;;8296943;28;20124;-88
2022/10/10 03:03:24;;;;;;;18.17;9.32;;;;;;;;;;8307412;28;20257;-87
2022/10/10 03:07:28;;;;;;;22.30;7.95;;;;;;;;;;8309389;28;20555;-87
2022/10/10 03:11:30;;;;;;;16.27;9.27;;;;;;;;;;8303276;28;20046;-87
2022/10/10 03:15:32;;;;;;;17.50;9.00;;;;;;;;;;8302859;28;20064;-88
2022/10/10 03:19:35;;;;;;;14.80;7.05;;;;;;;;;;8303047;28;20045;-87
2022/10/10 03:23:39;;;;;;;18.23;7.90;;;;;;;;;;8302750;28;20073;-88
2022/10/10 03:27:41;;;;;;;18.77;8.45;;;;;;;;;;8304454;28;20522;-88
2022/10/10 03:31:44;;;;;;;19.15;7.38;;;;;;;;;;8302999;28;20133;-85
2022/10/10 03:35:46;;;;;;;20.17;11.32;;;;;;;;;;8313600;28;20050;-89
2022/10/10 03:39:51;;;;;;;19.33;9.93;;;;;;;;;;8302393;28;20096;-88
2022/10/10 03:43:53;;;;;;;40.97;20.17;;;;;;;;;;8302272;28;20042;-88
2022/10/10 03:47:56;;;;;;;25.10;8.93;;;;;;;;;;8302057;28;20061;-87
2022/10/10 03:51:59;;;;;;;25.33;10.35;;;;;;;;;;8301899;28;20068;-88
2022/10/10 03:56:03;;;;;;;25.05;10.18;;;;;;;;;;8301799;28;20559;-88
2022/10/10 04:00:06;;;;;;;26.65;12.23;;;;;;;;;;8301511;28;20068;-87
2022/10/10 04:04:08;;;;;;;24.38;10.45;;;;;;;;;;8315363;28;20049;-86
2022/10/10 04:08:11;;;;;;;21.45;9.63;;;;;;;;;;8301362;28;20050;-87
2022/10/10 04:12:15;;;;;;;32.75;16.33;;;;;;;;;;8301291;28;20772;-86
2022/10/10 04:16:17;;;;;;;49.15;26.40;;;;;;;;;;8300962;28;20057;-87
2022/10/10 04:20:19;;;;;;;41.72;21.08;;;;;;;;;;8300311;28;20054;-85
2022/10/10 04:24:22;;;;;;;32.10;12.88;;;;;;;;;;8300820;28;20119;-86
2022/10/10 04:28:26;;;;;;;57.80;27.90;;;;;;;;;;8300930;28;20193;-87
2022/10/10 04:32:28;;;;;;;71.10;34.28;;;;;;;;;;8300525;28;20050;-86
2022/10/10 04:36:30;;;;;;;41.33;23.88;;;;;;;;;;8314590;28;20434;-88
2022/10/10 04:40:35;;;;;;;41.67;20.17;;;;;;;;;;8300343;28;20050;-87
2022/10/10 04:44:39;;;;;;;26.27;12.45;;;;;;;;;;8300087;28;20041;-88
2022/10/10 04:48:42;;;;;;;29.85;13.07;;;;;;;;;;8314053;28;20053;-87
2022/10/10 04:52:44;;;;;;;24.23;11.38;;;;;;;;;;8300072;28;20112;-89
2022/10/10 04:56:47;;;;;;;16.00;9.05;;;;;;;;;;8299951;28;20478;-87
2022/10/10 05:00:53;;;;;;;21.85;10.98;;;;;;;;;;8299768;28;20038;-87
2022/10/10 05:04:56;;;;;;;20.10;9.48;;;;;;;;;;8317745;28;20045;-88
2022/10/10 05:08:58;;;;;;;23.38;10.10;;;;;;;;;;8313242;28;20477;-88
2022/10/10 05:13:01;;;;;;;35.55;17.88;;;;;;;;;;8299247;28;20046;-88
2022/10/10 05:17:05;;;;;;;37.00;13.75;;;;;;;;;;8309462;28;20074;-86
2022/10/10 05:21:09;;;;;;;30.58;13.23;;;;;;;;;;8310329;28;20045;-87
2022/10/10 05:25:12;;;;;;;44.97;16.98;;;;;;;;;;8305459;28;20046;-86
2022/10/10 05:29:14;;;;;;;37.42;15.88;;;;;;;;;;8323531;28;20038;-88
2022/10/10 05:33:18;;;;;;;25.35;12.93;;;;;;;;;;8308097;28;20048;-88
2022/10/10 05:37:21;;;;;;;29.08;15.48;;;;;;;;;;8312593;28;20696;-87
2022/10/10 05:41:23;;;;;;;31.50;13.65;;;;;;;;;;8298445;28;20050;-87
2022/10/10 05:45:26;;;;;;;29.13;12.82;;;;;;;;;;8298223;28;20456;-87
2022/10/10 05:49:30;;;;;;;167.60;32.20;;;;;;;;;;8311907;28;20512;-86
2022/10/10 05:53:32;;;;;;;27.55;10.75;;;;;;;;;;8304281;28;20064;-86
2022/10/10 05:57:35;;;;;;;148.65;28.42;;;;;;;;;;8299375;28;20101;-87
2022/10/10 06:01:38;;;;;;;29.35;11.90;;;;;;;;;;8298718;28;20067;-86
2022/10/10 06:05:42;;;;;;;31.48;19.08;;;;;;;;;;8300838;28;20064;-87
2022/10/10 06:09:45;;;;;;;119.90;28.20;;;;;;;;;;8318902;28;20048;-88
2022/10/10 06:13:55;;;;;;;20.67;9.60;;;;;;;;;;8328814;28;20122;-88
2022/10/10 06:17:58;;;;;;;24.05;10.10;;;;;;;;;;8317745;28;20037;-87
2022/10/10 06:22:02;;;;;;;17.02;9.00;;;;;;;;;;8311231;28;20052;-88
2022/10/10 06:26:05;;;;;;;17.17;9.38;;;;;;;;;;8327397;28;20049;-88
2022/10/10 06:30:11;;;;;;;10.15;7.03;;;;;;;;;;8325080;28;20048;-87
2022/10/10 06:34:14;;;;;;;18.63;15.98;;;;;;;;;;8324075;28;20393;-88
2022/10/10 06:38:18;;;;;;;26.73;11.68;;;;;;;;;;8301975;28;20048;-89
2022/10/10 06:42:20;;;;;;;11.00;6.50;;;;;;;;;;8317750;28;20046;-89
2022/10/10 06:46:23;;;;;;;8.85;6.25;;;;;;;;;;8313920;28;20243;-89
2022/10/10 06:50:25;;;;;;;11.85;8.38;;;;;;;;;;8312104;28;20053;-89
2022/10/10 06:54:29;;;;;;;13.10;10.32;;;;;;;;;;8310222;28;20500;-90
2022/10/10 06:58:32;;;;;;;12.07;6.97;;;;;;;;;;8294857;28;20440;-88
2022/10/10 07:02:39;;;;;;;7.72;4.82;;;;;;;;;;8301349;28;20046;-89
2022/10/10 07:06:41;;;;;;;8.27;6.45;;;;;;;;;;8302775;28;20048;-89
2022/10/10 07:10:46;;;;;;;7.43;5.55;;;;;;;;;;8295944;28;20121;-89
2022/10/10 07:14:48;;;;;;;9.95;7.53;;;;;;;;;;8296181;28;20072;-88
2022/10/10 07:18:51;;;;;;;10.98;7.45;;;;;;;;;;8306812;28;20112;-87
2022/10/10 07:22:54;;;;;;;12.57;9.77;;;;;;;;;;8305881;28;20494;-89
2022/10/10 07:26:57;;;;;;;12.38;10.40;;;;;;;;;;8312935;28;20038;-88
2022/10/10 07:31:02;;;;;;;10.75;8.85;;;;;;;;;;8319135;28;20045;-89
2022/10/10 07:35:05;;;;;;;13.05;11.70;;;;;;;;;;8296087;28;20129;-89
2022/10/10 07:39:08;;;;;;;13.02;11.73;;;;;;;;;;8295862;28;20053;-89
2022/10/10 07:43:12;;;;;;;10.90;4.90;;;;;;;;;;8295478;28;20042;-89
2022/10/10 07:47:14;;;;;;;6.97;4.90;;;;;;;;;;8319161;28;20049;-90
2022/10/10 07:51:17;;;;;;;10.60;7.88;;;;;;;;;;8309612;28;20034;-91
2022/10/10 07:55:20;;;;;;;10.05;6.43;;;;;;;;;;8300974;28;20493;-89
2022/10/10 07:59:24;;;;;;;9.98;4.50;;;;;;;;;;8301558;28;20046;-89
2022/10/10 08:03:26;;;;;;;12.48;8.30;;;;;;;;;;8304545;28;20121;-89
2022/10/10 08:07:29;;;;;;;8.57;4.38;;;;;;;;;;8305575;28;20056;-89
2022/10/10 08:11:31;;;;;;;6.50;3.60;;;;;;;;;;8301251;28;20052;-90
2022/10/10 08:15:35;;;;;;;8.57;5.05;;;;;;;;;;8301267;28;20057;-91
2022/10/10 08:19:38;;;;;;;7.28;5.97;;;;;;;;;;8301305;28;20053;-91
2022/10/10 08:23:41;;;;;;;11.15;5.40;;;;;;;;;;8300942;28;20119;-90
2022/10/10 08:27:44;;;;;;;13.45;8.82;;;;;;;;;;8300940;28;20042;-91
2022/10/10 08:31:48;;;;;;;12.00;10.90;;;;;;;;;;8300801;28;20046;-91
2022/10/10 08:35:50;;;;;;;8.13;5.20;;;;;;;;;;8300797;28;20041;-91
2022/10/10 08:39:53;;;;;;;8.98;6.90;;;;;;;;;;8304010;28;20046;-90
2022/10/10 08:43:59;;;;;;;5.35;3.40;;;;;;;;;;8300345;28;20073;-89
2022/10/10 08:48:10;;;;;;;16.63;14.73;;;;;;;;;;8307152;28;20477;-91
2022/10/10 08:52:21;;;;;;;30.60;18.43;;;;;;;;;;8311257;28;20042;-90
2022/10/10 08:56:29;;;;;;;28.50;18.80;;;;;;;;;;8312667;28;20568;-88
2022/10/10 09:00:38;;;;;;;12.82;7.57;;;;;;;;;;8309015;28;20559;-88
2022/10/10 09:04:42;;;;;;;19.15;12.73;;;;;;;;;;8319847;28;20115;-90
2022/10/10 09:08:53;;;;;;;4.20;3.00;;;;;;;;;;8294431;28;20387;-89
2022/10/10 09:13:02;;;;;;;9.18;5.85;;;;;;;;;;8312709;28;20045;-89
2022/10/10 09:17:14;;;;;;;7.28;5.30;;;;;;;;;;8302364;28;20172;-90
2022/10/10 09:21:22;;;;;;;9.82;5.80;;;;;;;;;;8308342;28;20501;-89
2022/10/10 09:25:31;;;;;;;4.97;3.50;;;;;;;;;;8309484;28;20054;-90
2022/10/10 09:29:41;;;;;;;6.07;3.33;;;;;;;;;;8310071;28;20077;-89
2022/10/10 09:33:50;;;;;;;21.50;12.63;;;;;;;;;;8321672;28;20429;-89
2022/10/10 09:38:01;;;;;;;15.30;9.80;;;;;;;;;;8297734;28;20477;-90
2022/10/10 09:42:10;;;;;;;6.03;3.28;;;;;;;;;;8299890;28;20394;-90
2022/10/10 09:46:13;;;;;;;9.50;5.38;;;;;;;;;;8309108;28;20451;-90
2022/10/10 09:50:16;;;;;;;5.70;2.55;;;;;;;;;;8298127;28;20475;-89
2022/10/10 09:54:22;;;;;;;15.55;11.20;;;;;;;;;;8298366;28;20500;-89
2022/10/10 09:58:31;;;;;;;9.63;7.20;;;;;;;;;;8300344;28;20073;-90
2022/10/10 10:02:34;;;;;;;8.30;5.85;;;;;;;;;;8303957;28;20385;-87
2022/10/10 10:06:37;;;;;;;15.23;6.13;;;;;;;;;;8305555;28;20050;-89
2022/10/10 10:10:42;;;;;;;4.10;2.67;;;;;;;;;;8280677;28;20045;-89
2022/10/10 10:14:45;;;;;;;7.55;3.25;;;;;;;;;;8299427;28;20519;-88
2022/10/10 10:18:48;;;;;;;7.05;3.20;;;;;;;;;;8312137;28;20042;-90
2022/10/10 10:22:51;;;;;;;10.02;3.33;;;;;;;;;;8301141;28;20133;-90
2022/10/10 10:26:56;;;;;;;5.70;2.90;;;;;;;;;;8300529;28;20396;-89
2022/10/10 10:30:59;;;;;;;12.93;6.93;;;;;;;;;;8314444;28;20390;-89
2022/10/10 10:35:28;;;;;;;10.60;6.78;;;;;;;;;;8283837;28;20643;-89
2022/10/10 10:39:42;;;;;;;6.05;2.97;;;;;;;;;;8304139;28;20081;-88
2022/10/10 10:44:12;;;;;;;17.38;6.90;;;;;;;;;;8298398;28;20046;-89
2022/10/10 10:48:27;;;;;;;11.73;5.47;;;;;;;;;;8319103;28;20192;-88
2022/10/10 10:52:48;;;;;;;6.07;3.70;;;;;;;;;;8319635;28;20448;-89
2022/10/10 10:56:56;;;;;;;25.80;17.33;;;;;;;;;;8325660;28;20053;-89
2022/10/10 11:01:04;;;;;;;14.43;8.98;;;;;;;;;;8320541;28;20041;-90
2022/10/10 11:05:34;;;;;;;3.60;2.20;;;;;;;;;;8315209;28;20049;-90
2022/10/10 11:09:41;;;;;;;14.43;4.50;;;;;;;;;;8289588;28;20061;-89
2022/10/10 11:13:54;;;;;;;7.82;3.67;;;;;;;;;;8302906;28;20042;-88
2022/10/10 11:18:03;;;;;;;6.15;2.45;;;;;;;;;;8308566;28;20489;-89
2022/10/10 11:22:09;;;;;;;5.10;3.33;;;;;;;;;;8309017;28;20585;-89
2022/10/10 11:26:20;;;;;;;4.63;2.88;;;;;;;;;;8298963;28;20037;-89
2022/10/10 11:30:24;;;;;;;3.47;2.28;;;;;;;;;;8311869;28;20104;-89
2022/10/10 11:34:33;;;;;;;20.63;12.70;;;;;;;;;;8314803;28;20049;-88
2022/10/10 11:38:43;;;;;;;5.75;2.92;;;;;;;;;;8317067;28;20519;-89
2022/10/10 11:42:52;;;;;;;6.22;3.28;;;;;;;;;;8314363;28;20120;-88
2022/10/10 11:47:01;;;;;;;9.07;4.30;;;;;;;;;;8307265;28;20046;-88
2022/10/10 11:51:16;;;;;;;40.67;25.70;;;;;;;;;;8301849;28;20042;-88
2022/10/10 11:55:25;;;;;;;9.90;4.30;;;;;;;;;;8301763;28;20125;-88
2022/10/10 11:59:34;;;;;;;8.75;5.05;;;;;;;;;;8300399;28;20046;-88
2022/10/10 12:03:37;;;;;;;8.82;7.00;;;;;;;;;;8315373;28;20527;-88
2022/10/10 12:07:59;;;;;;;6.38;3.38;;;;;;;;;;8301420;28;20053;-88
2022/10/10 12:12:07;;;;;;;5.28;2.70;;;;;;;;;;8301354;28;20046;-89
2022/10/10 12:16:14;;;;;;;2.72;2.25;;;;;;;;;;8314956;28;20387;-89
2022/10/10 12:20:32;;;;;;;5.15;2.80;;;;;;;;;;8301154;28;20096;-88
2022/10/10 12:24:57;;;;;;;3.47;2.10;;;;;;;;;;8300878;28;20099;-88
2022/10/10 12:29:04;;;;;;;5.60;3.28;;;;;;;;;;8300549;28;20495;-88
2022/10/10 12:33:22;;;;;;;5.40;2.63;;;;;;;;;;8300590;28;20073;-87
2022/10/10 12:37:27;;;;;;;4.13;2.00;;;;;;;;;;8300338;28;20057;-87
2022/10/10 12:41:54;;;;;;;9.35;3.40;;;;;;;;;;8299683;28;20412;-87
2022/10/10 12:46:25;;;;;;;3.83;2.40;;;;;;;;;;8299947;28;20632;-88
2022/10/10 12:50:31;;;;;;;5.00;2.83;;;;;;;;;;8300109;28;20054;-87
2022/10/10 12:54:40;;;;;;;2.55;2.03;;;;;;;;;;8299718;28;20061;-89
2022/10/10 12:58:48;;;;;;;4.82;3.55;;;;;;;;;;8299810;28;20050;-88
2022/10/10 13:02:53;;;;;;;4.93;3.20;;;;;;;;;;8307769;28;20051;-88
2022/10/10 13:06:58;;;;;;;5.15;2.95;;;;;;;;;;8304405;28;20137;-89
2022/10/10 13:11:08;;;;;;;5.80;3.28;;;;;;;;;;8299432;28;20042;-89
2022/10/10 13:15:22;;;;;;;9.35;3.22;;;;;;;;;;8299119;28;20057;-88
2022/10/10 13:19:25;;;;;;;4.38;2.83;;;;;;;;;;8299390;28;20049;-87
2022/10/10 13:23:27;;;;;;;7.88;3.45;;;;;;;;;;8298956;28;20048;-88
2022/10/10 13:27:33;;;;;;;7.00;3.30;;;;;;;;;;8298679;28;20488;-87
2022/10/10 13:31:38;;;;;;;5.32;3.22;;;;;;;;;;8298868;28;20481;-87
2022/10/10 13:35:41;;;;;;;6.15;4.00;;;;;;;;;;8299137;28;20052;-88
2022/10/10 13:39:44;;;;;;;5.13;3.15;;;;;;;;;;8298493;28;20048;-87
2022/10/10 13:43:47;;;;;;;10.55;3.60;;;;;;;;;;8298391;28;20050;-87
2022/10/10 13:47:53;;;;;;;7.22;3.85;;;;;;;;;;8298278;28;20069;-88
2022/10/10 13:52:16;;;;;;;6.45;3.40;;;;;;;;;;8297599;28;20120;-88
2022/10/10 13:56:27;;;;;;;5.95;3.05;;;;;;;;;;8298481;28;20494;-88
2022/10/10 14:00:31;;;;;;;6.90;3.15;;;;;;;;;;8297945;28;20142;-87
2022/10/10 14:04:40;;;;;;;9.25;4.03;;;;;;;;;;8311653;28;20037;-88
2022/10/10 14:08:43;;;;;;;5.68;2.95;;;;;;;;;;8297718;28;20037;-87
2022/10/10 14:12:50;;;;;;;3.75;2.60;;;;;;;;;;8297648;28;20042;-88
2022/10/10 14:17:00;;;;;;;5.72;2.92;;;;;;;;;;8297476;28;20050;-87
2022/10/10 14:21:04;;;;;;;8.68;3.55;;;;;;;;;;8302963;28;20499;-87
2022/10/10 14:25:07;;;;;;;7.70;2.63;;;;;;;;;;8315197;28;20050;-88
2022/10/10 14:29:13;;;;;;;4.45;2.80;;;;;;;;;;8297199;28;20057;-87
2022/10/10 14:33:18;;;;;;;4.20;2.75;;;;;;;;;;8297140;28;20409;-87
2022/10/10 14:37:25;;;;;;;13.35;7.28;;;;;;;;;;8297116;28;20046;-88
2022/10/10 14:41:28;;;;;;;8.70;3.95;;;;;;;;;;8297289;28;20053;-88
2022/10/10 14:45:30;;;;;;;5.95;3.60;;;;;;;;;;8308417;28;20404;-88
2022/10/10 14:49:33;;;;;;;6.82;4.00;;;;;;;;;;8303717;28;20046;-89
2022/10/10 14:53:36;;;;;;;7.82;3.40;;;;;;;;;;8309052;28;20064;-88
2022/10/10 14:57:40;;;;;;;8.90;5.22;;;;;;;;;;8307166;28;20092;-88
2022/10/10 15:01:42;;;;;;;5.18;3.03;;;;;;;;;;8292510;28;20077;-89
2022/10/10 15:05:46;;;;;;;6.32;3.90;;;;;;;;;;8309428;28;20053;-89
2022/10/10 15:09:50;;;;;;;7.88;4.53;;;;;;;;;;8314578;28;20051;-88
2022/10/10 15:13:53;;;;;;;8.35;4.70;;;;;;;;;;8316780;28;20060;-88
2022/10/10 15:18:02;;;;;;;8.18;3.65;;;;;;;;;;8302472;28;20478;-89
2022/10/10 15:22:04;;;;;;;6.85;3.65;;;;;;;;;;8316519;28;20489;-89
2022/10/10 15:26:08;;;;;;;6.28;3.13;;;;;;;;;;8296568;28;20148;-89
2022/10/10 15:30:14;;;;;;;6.20;3.05;;;;;;;;;;8308874;28;20073;-87
2022/10/10 15:34:17;;;;;;;7.38;3.50;;;;;;;;;;8309951;28;20076;-88
2022/10/10 15:38:20;;;;;;;7.10;3.30;;;;;;;;;;8320415;28;20064;-88
2022/10/10 15:42:24;;;;;;;6.35;3.60;;;;;;;;;;8311278;28;20484;-88
2022/10/10 15:46:28;;;;;;;5.15;3.47;;;;;;;;;;8313912;28;20046;-89
2022/10/10 15:50:31;;;;;;;6.40;3.88;;;;;;;;;;8316400;28;20048;-88
2022/10/10 15:54:34;;;;;;;5.95;3.72;;;;;;;;;;8310272;28;20511;-88
2022/10/10 15:58:39;;;;;;;9.20;4.95;;;;;;;;;;8320947;28;20056;-89
2022/10/10 16:02:41;;;;;;;8.07;4.90;;;;;;;;;;8313759;28;20073;-87
2022/10/10 16:06:45;;;;;;;11.93;7.10;;;;;;;;;;8309584;28;20057;-88
2022/10/10 16:10:47;;;;;;;9.10;5.75;;;;;;;;;;8298578;28;20076;-88
2022/10/10 16:14:52;;;;;;;9.30;5.57;;;;;;;;;;8306348;28;20061;-88
2022/10/10 16:18:54;;;;;;;10.40;5.43;;;;;;;;;;8307940;28;20052;-88
2022/10/10 16:22:56;;;;;;;11.85;6.05;;;;;;;;;;8318156;28;20045;-88
2022/10/10 16:27:04;;;;;;;9.45;6.05;;;;;;;;;;8305623;28;20054;-89
2022/10/10 16:31:27;;;;;;;7.65;5.28;;;;;;;;;;8308568;28;20052;-90
2022/10/10 16:35:49;;;;;;;11.93;7.28;;;;;;;;;;8300662;28;20054;-90
2022/10/10 16:40:04;;;;;;;27.27;15.02;;;;;;;;;;8314465;28;20040;-89
2022/10/10 16:48:56;;;;;;;28.90;17.08;;;;;;;;;;8308219;28;20042;-89
2022/10/10 16:53:16;;;;;;;58.30;30.80;;;;;;;;;;8318145;28;20057;-90
2022/10/10 16:57:28;;;;;;;62.95;26.13;;;;;;;;;;8297973;28;20490;-88
2022/10/10 17:01:36;;;;;;;59.75;31.35;;;;;;;;;;8305336;28;20037;-87
2022/10/10 17:05:48;;;;;;;31.05;17.83;;;;;;;;;;8300688;23;20058;-88
2022/10/10 17:10:12;;;;;;;77.80;31.83;;;;;;;;;;8294767;28;20409;-89
2022/10/10 17:14:43;;;;;;;34.60;17.08;;;;;;;;;;8286117;28;20038;-89
2022/10/10 17:19:22;;;;;;;25.08;12.15;;;;;;;;;;8263379;28;20047;-89
2022/10/10 17:23:35;;;;;;;60.60;25.63;;;;;;;;;;8283018;28;20053;-88
2022/10/10 17:27:48;;;;;;;22.67;11.70;;;;;;;;;;8293898;28;20144;-88
2022/10/10 17:32:36;;;;;;;23.52;11.25;;;;;;;;;;8263178;28;20054;-89
2022/10/10 17:37:06;;;;;;;51.72;24.90;;;;;;;;;;8279349;28;20050;-89
2022/10/10 17:41:48;;;;;;;47.53;21.63;;;;;;;;;;8253329;28;20550;-89
2022/10/10 17:46:33;;;;;;;38.33;21.15;;;;;;;;;;8279609;28;20703;-88
2022/10/10 17:50:41;;;;;;;33.70;17.52;;;;;;;;;;8276519;28;20694;-87
2022/10/10 17:54:48;;;;;;;49.35;18.00;;;;;;;;;;8269088;28;20048;-88
2022/10/10 17:58:54;;;;;;;51.53;19.27;;;;;;;;;;8267611;28;20091;-87
2022/10/10 18:02:57;;;;;;;40.08;18.50;;;;;;;;;;8270910;28;20061;-88
2022/10/10 18:07:00;;;;;;;14.27;6.00;;;;;;;;;;8285547;28;20525;-88
2022/10/10 18:11:03;;;;;;;13.68;6.72;;;;;;;;;;8276091;28;20443;-89
2022/10/10 18:15:09;;;;;;;18.45;6.82;;;;;;;;;;8269844;28;20046;-87
2022/10/10 18:19:12;;;;;;;14.90;6.40;;;;;;;;;;8265484;28;20042;-87
2022/10/10 18:23:15;;;;;;;34.15;16.77;;;;;;;;;;8276462;28;20057;-87
2022/10/10 18:27:20;;;;;;;17.10;7.82;;;;;;;;;;8284196;28;20065;-89
2022/10/10 18:31:28;;;;;;;15.15;6.60;;;;;;;;;;8266394;28;20129;-89
2022/10/10 18:35:31;;;;;;;14.73;6.70;;;;;;;;;;8280353;28;20549;-88
2022/10/10 18:39:34;;;;;;;13.70;6.57;;;;;;;;;;8279429;28;20058;-89
2022/10/10 18:43:38;;;;;;;12.55;6.45;;;;;;;;;;8277522;28;20052;-89
2022/10/10 18:47:43;;;;;;;13.90;6.35;;;;;;;;;;8281151;28;20407;-89
2022/10/10 18:51:46;;;;;;;13.68;6.68;;;;;;;;;;8284294;28;20074;-89
2022/10/10 18:55:55;;;;;;;19.38;7.10;;;;;;;;;;8278223;28;20053;-87
2022/10/10 18:59:57;;;;;;;13.32;6.28;;;;;;;;;;8274644;28;20502;-87
2022/10/10 19:04:02;;;;;;;14.43;6.25;;;;;;;;;;8266121;28;20062;-87
2022/10/10 19:08:05;;;;;;;15.40;6.20;;;;;;;;;;8281209;28;20045;-88
2022/10/10 19:12:07;;;;;;;13.43;5.45;;;;;;;;;;8280068;28;20046;-89
2022/10/10 19:16:10;;;;;;;11.68;5.60;;;;;;;;;;8273537;28;20111;-89
2022/10/10 19:20:14;;;;;;;11.57;5.72;;;;;;;;;;8287285;28;20406;-88
2022/10/10 19:24:19;;;;;;;11.52;5.15;;;;;;;;;;8285601;28;20486;-88
2022/10/10 19:28:22;;;;;;;6.43;3.10;;;;;;;;;;8290648;28;20136;-87
2022/10/10 19:32:26;;;;;;;16.33;5.72;;;;;;;;;;8288797;28;20046;-88
2022/10/10 19:36:31;;;;;;;18.33;5.85;;;;;;;;;;8289595;28;20510;-89
2022/10/10 19:40:43;;;;;;;11.02;5.78;;;;;;;;;;8284467;28;20474;-90
2022/10/10 19:44:53;;;;;;;11.52;5.70;;;;;;;;;;8286285;28;20049;-90
2022/10/10 19:49:01;;;;;;;18.83;7.43;;;;;;;;;;8276739;28;20046;-90
2022/10/10 19:53:06;;;;;;;12.10;5.60;;;;;;;;;;8275600;28;20100;-89
2022/10/10 19:57:09;;;;;;;11.18;5.65;;;;;;;;;;8276584;28;20050;-90
2022/10/10 20:01:15;;;;;;;12.73;6.13;;;;;;;;;;8272480;28;20038;-90
2022/10/10 20:05:18;;;;;;;14.27;5.97;;;;;;;;;;8272196;28;20065;-90
2022/10/10 20:09:24;;;;;;;10.88;5.65;;;;;;;;;;8282971;28;20092;-89
2022/10/10 20:13:26;;;;;;;11.45;6.90;;;;;;;;;;8296959;28;20092;-91
2022/10/10 20:17:30;;;;;;;18.88;7.05;;;;;;;;;;8301183;28;20050;-89
2022/10/10 20:21:34;;;;;;;23.23;11.68;;;;;;;;;;8300798;28;20111;-90
2022/10/10 20:25:39;;;;;;;17.13;9.55;;;;;;;;;;8287171;28;20088;-89
2022/10/10 20:29:41;;;;;;;14.25;7.72;;;;;;;;;;8301030;28;20054;-90
2022/10/10 20:33:44;;;;;;;105.30;35.90;;;;;;;;;;8296657;28;20057;-90
2022/10/10 20:37:49;;;;;;;27.60;14.73;;;;;;;;;;8283283;28;20042;-89
2022/10/10 20:42:00;;;;;;;12.77;6.88;;;;;;;;;;8296854;28;20050;-89
2022/10/10 20:46:17;;;;;;;20.23;7.28;;;;;;;;;;8287700;28;20041;-90
2022/10/10 20:50:19;;;;;;;18.17;10.43;;;;;;;;;;8298660;28;20153;-89
2022/10/10 20:54:27;;;;;;;12.88;7.80;;;;;;;;;;8288556;28;20498;-89
2022/10/10 20:58:35;;;;;;;14.98;7.60;;;;;;;;;;8291948;28;20125;-89
2022/10/10 21:02:38;;;;;;;14.65;8.18;;;;;;;;;;8295718;28;20064;-88
2022/10/10 21:06:42;;;;;;;21.17;11.60;;;;;;;;;;8299195;28;20046;-90
2022/10/10 21:10:45;;;;;;;17.67;10.75;;;;;;;;;;8290485;28;20050;-90
2022/10/10 21:14:50;;;;;;;32.05;17.20;;;;;;;;;;8291371;28;20042;-89
2022/10/10 21:18:53;;;;;;;22.00;13.07;;;;;;;;;;8295205;28;20054;-90
2022/10/10 21:22:56;;;;;;;24.90;12.25;;;;;;;;;;8299530;28;20092;-88
2022/10/10 21:26:59;;;;;;;18.33;9.80;;;;;;;;;;8299295;28;20498;-89
2022/10/10 21:31:04;;;;;;;15.32;6.75;;;;;;;;;;8299012;28;20084;-90
2022/10/10 21:35:07;;;;;;;18.40;9.38;;;;;;;;;;8298821;28;20044;-89
2022/10/10 21:39:11;;;;;;;14.68;8.65;;;;;;;;;;8298762;28;20421;-90
2022/10/10 21:43:14;;;;;;;25.80;11.95;;;;;;;;;;8299036;28;20417;-90
2022/10/10 21:47:18;;;;;;;19.33;9.93;;;;;;;;;;8298946;28;20061;-88
2022/10/10 21:51:21;;;;;;;23.77;9.52;;;;;;;;;;8298892;28;20045;-90
2022/10/10 21:55:24;;;;;;;26.80;9.48;;;;;;;;;;8298735;28;20045;-89
2022/10/10 21:59:30;;;;;;;17.40;8.77;;;;;;;;;;8298581;28;20045;-89
2022/10/10 22:03:34;;;;;;;19.75;10.15;;;;;;;;;;8298140;28;20068;-89
2022/10/10 22:07:37;;;;;;;24.55;11.13;;;;;;;;;;8298606;28;20042;-89
2022/10/10 22:11:40;;;;;;;24.50;13.30;;;;;;;;;;8297554;28;20103;-91
2022/10/10 22:15:42;;;;;;;20.15;9.57;;;;;;;;;;8297409;28;20057;-89
2022/10/10 22:19:47;;;;;;;21.63;11.55;;;;;;;;;;8298212;28;20053;-89
2022/10/10 22:23:49;;;;;;;21.83;11.27;;;;;;;;;;8297756;28;20057;-91
2022/10/10 22:27:52;;;;;;;17.90;8.95;;;;;;;;;;8297893;28;20486;-90
2022/10/10 22:31:54;;;;;;;17.92;8.75;;;;;;;;;;8297756;28;20509;-90
2022/10/10 22:35:59;;;;;;;18.02;8.07;;;;;;;;;;8296440;28;20458;-91
2022/10/10 22:40:01;;;;;;;14.15;7.20;;;;;;;;;;8297795;28;20042;-90
2022/10/10 22:44:04;;;;;;;30.10;11.45;;;;;;;;;;8297349;28;20046;-90
2022/10/10 22:48:07;;;;;;;22.73;11.27;;;;;;;;;;8297133;28;20101;-90
2022/10/10 22:52:11;;;;;;;18.88;9.05;;;;;;;;;;8297311;28;20045;-90
2022/10/10 22:56:20;;;;;;;23.75;10.60;;;;;;;;;;8297304;28;20077;-90
2022/10/10 23:00:22;;;;;;;21.77;9.68;;;;;;;;;;8296988;28;20053;-90
2022/10/10 23:04:25;;;;;;;24.85;9.77;;;;;;;;;;8295355;28;20136;-90
2022/10/10 23:08:29;;;;;;;19.98;9.30;;;;;;;;;;8296734;28;20050;-89
2022/10/10 23:12:31;;;;;;;18.83;8.60;;;;;;;;;;8296388;28;20092;-89
2022/10/10 23:16:34;;;;;;;15.60;7.22;;;;;;;;;;8296440;28;20058;-89
2022/10/10 23:20:36;;;;;;;22.15;8.45;;;;;;;;;;8295429;28;20065;-89
2022/10/10 23:24:40;;;;;;;14.77;6.78;;;;;;;;;;8300479;28;20049;-88
2022/10/10 23:28:44;;;;;;;18.75;8.50;;;;;;;;;;8302556;28;20397;-87
2022/10/10 23:32:47;;;;;;;16.73;7.97;;;;;;;;;;8302288;28;20525;-90
2022/10/10 23:36:49;;;;;;;17.42;6.82;;;;;;;;;;8302458;28;20156;-89
2022/10/10 23:40:53;;;;;;;13.38;6.80;;;;;;;;;;8302066;28;20050;-89
2022/10/10 23:44:56;;;;;;;16.77;7.63;;;;;;;;;;8298869;28;20061;-89
2022/10/10 23:48:58;;;;;;;16.63;7.80;;;;;;;;;;8301813;28;20453;-89
2022/10/10 23:53:01;;;;;;;17.40;7.80;;;;;;;;;;8301929;28;20042;-89
2022/10/10 23:57:06;;;;;;;19.17;7.25;;;;;;;;;;8301938;28;20038;-89
